sensor_id;sensor_type;location;lat;lon;timestamp;P1;durP1;ratioP1;P2;durP2;ratioP2
59734;SDS011;64362;45.620;4.920;2023-03-11T00:00:39;3.58;;;1.60;;
59734;SDS011;64362;45.620;4.920;2023-03-11T00:03:07;3.30;;;1.17;;
59734;SDS011;64362;45.620;4.920;2023-03-11T00:05:34;3.00;;;1.30;;
59734;SDS011;64362;45.620;4.920;2023-03-11T00:08:02;3.28;;;1.48;;
59734;SDS011;64362;45.620;4.920;2023-03-11T00:10:35;4.25;;;1.48;;
59734;SDS011;64362;45.620;4.920;2023-03-11T00:13:03;2.53;;;1.30;;
59734;SDS011;64362;45.620;4.920;2023-03-11T00:15:29;5.25;;;2.13;;
59734;SDS011;64362;45.620;4.920;2023-03-11T00:17:55;3.75;;;1.30;;
59734;SDS011;64362;45.620;4.920;2023-03-11T00:20:25;4.55;;;1.30;;
59734;SDS011;64362;45.620;4.920;2023-03-11T00:22:52;3.83;;;1.30;;
59734;SDS011;64362;45.620;4.920;2023-03-11T00:25:19;2.90;;;1.27;;
59734;SDS011;64362;45.620;4.920;2023-03-11T00:27:45;2.88;;;1.38;;
59734;SDS011;64362;45.620;4.920;2023-03-11T00:30:11;5.35;;;1.73;;
59734;SDS011;64362;45.620;4.920;2023-03-11T00:32:37;4.22;;;1.40;;
59734;SDS011;64362;45.620;4.920;2023-03-11T00:35:03;3.92;;;1.20;;
59734;SDS011;64362;45.620;4.920;2023-03-11T00:37:29;2.47;;;1.35;;
59734;SDS011;64362;45.620;4.920;2023-03-11T00:39:56;2.50;;;1.25;;
59734;SDS011;64362;45.620;4.920;2023-03-11T00:42:22;3.20;;;1.10;;
59734;SDS011;64362;45.620;4.920;2023-03-11T00:44:47;5.25;;;1.40;;
59734;SDS011;64362;45.620;4.920;2023-03-11T00:47:13;3.42;;;1.27;;
59734;SDS011;64362;45.620;4.920;2023-03-11T00:49:38;2.95;;;1.38;;
59734;SDS011;64362;45.620;4.920;2023-03-11T00:52:04;2.85;;;1.30;;
59734;SDS011;64362;45.620;4.920;2023-03-11T00:54:30;4.03;;;1.45;;
59734;SDS011;64362;45.620;4.920;2023-03-11T00:56:56;4.93;;;1.38;;
59734;SDS011;64362;45.620;4.920;2023-03-11T00:59:21;3.40;;;1.38;;
59734;SDS011;64362;45.620;4.920;2023-03-11T01:01:47;2.95;;;1.10;;
59734;SDS011;64362;45.620;4.920;2023-03-11T01:04:12;2.55;;;1.05;;
59734;SDS011;64362;45.620;4.920;2023-03-11T01:06:38;3.05;;;1.10;;
59734;SDS011;64362;45.620;4.920;2023-03-11T01:09:03;3.53;;;1.23;;
59734;SDS011;64362;45.620;4.920;2023-03-11T01:11:30;2.65;;;1.23;;
59734;SDS011;64362;45.620;4.920;2023-03-11T01:13:55;2.97;;;1.27;;
59734;SDS011;64362;45.620;4.920;2023-03-11T01:16:21;4.50;;;1.20;;
59734;SDS011;64362;45.620;4.920;2023-03-11T01:18:47;3.45;;;1.35;;
59734;SDS011;64362;45.620;4.920;2023-03-11T01:21:13;3.13;;;1.10;;
59734;SDS011;64362;45.620;4.920;2023-03-11T01:23:39;2.42;;;1.13;;
59734;SDS011;64362;45.620;4.920;2023-03-11T01:26:05;3.15;;;1.40;;
59734;SDS011;64362;45.620;4.920;2023-03-11T01:28:31;2.25;;;1.17;;
59734;SDS011;64362;45.620;4.920;2023-03-11T01:30:57;2.45;;;1.10;;
59734;SDS011;64362;45.620;4.920;2023-03-11T01:33:22;2.63;;;1.08;;
59734;SDS011;64362;45.620;4.920;2023-03-11T01:35:48;3.05;;;1.20;;
59734;SDS011;64362;45.620;4.920;2023-03-11T01:38:13;3.35;;;1.20;;
59734;SDS011;64362;45.620;4.920;2023-03-11T01:40:41;2.70;;;1.00;;
59734;SDS011;64362;45.620;4.920;2023-03-11T01:46:07;3.55;;;1.20;;
59734;SDS011;64362;45.620;4.920;2023-03-11T01:48:43;2.20;;;0.95;;
59734;SDS011;64362;45.620;4.920;2023-03-11T01:51:14;2.28;;;0.98;;
59734;SDS011;64362;45.620;4.920;2023-03-11T01:53:42;3.20;;;1.25;;
59734;SDS011;64362;45.620;4.920;2023-03-11T01:56:07;1.92;;;0.88;;
59734;SDS011;64362;45.620;4.920;2023-03-11T01:58:34;3.00;;;0.95;;
59734;SDS011;64362;45.620;4.920;2023-03-11T02:01:02;2.83;;;0.90;;
59734;SDS011;64362;45.620;4.920;2023-03-11T02:05:55;2.40;;;1.17;;
59734;SDS011;64362;45.620;4.920;2023-03-11T02:08:22;1.77;;;0.70;;
59734;SDS011;64362;45.620;4.920;2023-03-11T02:10:48;2.70;;;1.10;;
59734;SDS011;64362;45.620;4.920;2023-03-11T02:13:14;2.53;;;1.10;;
59734;SDS011;64362;45.620;4.920;2023-03-11T02:15:40;2.70;;;0.90;;
59734;SDS011;64362;45.620;4.920;2023-03-11T02:18:06;1.65;;;0.80;;
59734;SDS011;64362;45.620;4.920;2023-03-11T02:20:44;1.60;;;0.75;;
59734;SDS011;64362;45.620;4.920;2023-03-11T02:23:14;2.90;;;1.25;;
59734;SDS011;64362;45.620;4.920;2023-03-11T02:25:52;2.47;;;1.00;;
59734;SDS011;64362;45.620;4.920;2023-03-11T02:28:26;2.22;;;1.10;;
59734;SDS011;64362;45.620;4.920;2023-03-11T02:30:52;1.45;;;0.77;;
59734;SDS011;64362;45.620;4.920;2023-03-11T02:33:19;2.22;;;1.00;;
59734;SDS011;64362;45.620;4.920;2023-03-11T02:35:46;2.95;;;1.10;;
59734;SDS011;64362;45.620;4.920;2023-03-11T02:38:12;2.58;;;0.80;;
59734;SDS011;64362;45.620;4.920;2023-03-11T02:43:26;2.45;;;0.73;;
59734;SDS011;64362;45.620;4.920;2023-03-11T02:45:55;2.55;;;1.00;;
59734;SDS011;64362;45.620;4.920;2023-03-11T02:48:21;1.88;;;1.00;;
59734;SDS011;64362;45.620;4.920;2023-03-11T02:50:48;2.15;;;0.88;;
59734;SDS011;64362;45.620;4.920;2023-03-11T02:53:15;1.38;;;0.77;;
59734;SDS011;64362;45.620;4.920;2023-03-11T02:55:41;2.38;;;1.05;;
59734;SDS011;64362;45.620;4.920;2023-03-11T02:58:06;1.73;;;0.75;;
59734;SDS011;64362;45.620;4.920;2023-03-11T03:00:32;2.85;;;0.88;;
59734;SDS011;64362;45.620;4.920;2023-03-11T03:03:03;2.60;;;0.85;;
59734;SDS011;64362;45.620;4.920;2023-03-11T03:05:28;1.95;;;0.70;;
59734;SDS011;64362;45.620;4.920;2023-03-11T03:07:56;3.28;;;0.80;;
59734;SDS011;64362;45.620;4.920;2023-03-11T03:10:22;2.00;;;0.80;;
59734;SDS011;64362;45.620;4.920;2023-03-11T03:12:48;2.17;;;0.90;;
59734;SDS011;64362;45.620;4.920;2023-03-11T03:15:13;1.85;;;0.90;;
59734;SDS011;64362;45.620;4.920;2023-03-11T03:17:40;2.65;;;0.80;;
59734;SDS011;64362;45.620;4.920;2023-03-11T03:20:06;2.17;;;0.90;;
59734;SDS011;64362;45.620;4.920;2023-03-11T03:22:37;1.60;;;0.52;;
59734;SDS011;64362;45.620;4.920;2023-03-11T03:25:03;2.25;;;0.90;;
59734;SDS011;64362;45.620;4.920;2023-03-11T03:27:29;2.70;;;1.00;;
59734;SDS011;64362;45.620;4.920;2023-03-11T03:29:55;2.10;;;0.80;;
59734;SDS011;64362;45.620;4.920;2023-03-11T03:32:21;1.65;;;0.80;;
59734;SDS011;64362;45.620;4.920;2023-03-11T03:34:46;1.60;;;0.88;;
59734;SDS011;64362;45.620;4.920;2023-03-11T03:37:12;1.95;;;0.90;;
59734;SDS011;64362;45.620;4.920;2023-03-11T03:39:37;1.70;;;0.70;;
59734;SDS011;64362;45.620;4.920;2023-03-11T03:42:04;2.05;;;0.80;;
59734;SDS011;64362;45.620;4.920;2023-03-11T03:44:32;1.42;;;0.70;;
59734;SDS011;64362;45.620;4.920;2023-03-11T03:46:58;3.05;;;0.90;;
59734;SDS011;64362;45.620;4.920;2023-03-11T03:49:23;3.45;;;1.02;;
59734;SDS011;64362;45.620;4.920;2023-03-11T03:51:49;2.45;;;0.80;;
59734;SDS011;64362;45.620;4.920;2023-03-11T03:54:28;1.73;;;0.80;;
59734;SDS011;64362;45.620;4.920;2023-03-11T03:56:53;1.27;;;0.77;;
59734;SDS011;64362;45.620;4.920;2023-03-11T03:59:19;1.95;;;0.73;;
59734;SDS011;64362;45.620;4.920;2023-03-11T04:01:50;1.40;;;0.65;;
59734;SDS011;64362;45.620;4.920;2023-03-11T04:04:16;2.33;;;0.90;;
59734;SDS011;64362;45.620;4.920;2023-03-11T04:06:42;2.70;;;0.77;;
59734;SDS011;64362;45.620;4.920;2023-03-11T04:09:09;1.83;;;0.80;;
59734;SDS011;64362;45.620;4.920;2023-03-11T04:11:35;2.10;;;0.70;;
59734;SDS011;64362;45.620;4.920;2023-03-11T04:14:02;2.05;;;0.90;;
59734;SDS011;64362;45.620;4.920;2023-03-11T04:16:30;1.63;;;0.70;;
59734;SDS011;64362;45.620;4.920;2023-03-11T04:19:04;1.70;;;1.00;;
59734;SDS011;64362;45.620;4.920;2023-03-11T04:21:30;1.77;;;0.90;;
59734;SDS011;64362;45.620;4.920;2023-03-11T04:23:56;1.83;;;0.82;;
59734;SDS011;64362;45.620;4.920;2023-03-11T04:26:27;1.50;;;0.88;;
59734;SDS011;64362;45.620;4.920;2023-03-11T04:28:53;1.52;;;0.70;;
59734;SDS011;64362;45.620;4.920;2023-03-11T04:31:19;1.52;;;0.75;;
59734;SDS011;64362;45.620;4.920;2023-03-11T04:33:45;2.00;;;0.70;;
59734;SDS011;64362;45.620;4.920;2023-03-11T04:36:12;2.20;;;0.70;;
59734;SDS011;64362;45.620;4.920;2023-03-11T04:38:37;1.80;;;0.70;;
59734;SDS011;64362;45.620;4.920;2023-03-11T04:41:05;2.47;;;0.82;;
59734;SDS011;64362;45.620;4.920;2023-03-11T04:43:32;1.98;;;0.77;;
59734;SDS011;64362;45.620;4.920;2023-03-11T04:45:58;1.75;;;0.80;;
59734;SDS011;64362;45.620;4.920;2023-03-11T04:48:24;1.85;;;0.70;;
59734;SDS011;64362;45.620;4.920;2023-03-11T04:50:51;2.42;;;0.85;;
59734;SDS011;64362;45.620;4.920;2023-03-11T04:53:17;1.63;;;0.80;;
59734;SDS011;64362;45.620;4.920;2023-03-11T04:55:42;2.20;;;0.90;;
59734;SDS011;64362;45.620;4.920;2023-03-11T04:58:08;2.05;;;0.95;;
59734;SDS011;64362;45.620;4.920;2023-03-11T05:00:36;1.70;;;0.65;;
59734;SDS011;64362;45.620;4.920;2023-03-11T05:03:06;2.55;;;0.80;;
59734;SDS011;64362;45.620;4.920;2023-03-11T05:05:31;2.25;;;0.80;;
59734;SDS011;64362;45.620;4.920;2023-03-11T05:07:57;2.05;;;0.70;;
59734;SDS011;64362;45.620;4.920;2023-03-11T05:10:23;1.83;;;0.60;;
59734;SDS011;64362;45.620;4.920;2023-03-11T05:12:52;1.60;;;0.80;;
59734;SDS011;64362;45.620;4.920;2023-03-11T05:15:19;3.03;;;1.10;;
59734;SDS011;64362;45.620;4.920;2023-03-11T05:17:45;1.58;;;0.75;;
59734;SDS011;64362;45.620;4.920;2023-03-11T05:20:11;2.17;;;0.77;;
59734;SDS011;64362;45.620;4.920;2023-03-11T05:22:37;1.80;;;0.93;;
59734;SDS011;64362;45.620;4.920;2023-03-11T05:25:03;1.45;;;0.75;;
59734;SDS011;64362;45.620;4.920;2023-03-11T05:27:29;1.67;;;0.70;;
59734;SDS011;64362;45.620;4.920;2023-03-11T05:29:55;1.70;;;0.75;;
59734;SDS011;64362;45.620;4.920;2023-03-11T05:32:23;2.00;;;0.70;;
59734;SDS011;64362;45.620;4.920;2023-03-11T05:34:49;1.15;;;0.57;;
59734;SDS011;64362;45.620;4.920;2023-03-11T05:37:16;1.30;;;0.70;;
59734;SDS011;64362;45.620;4.920;2023-03-11T05:39:43;1.15;;;0.70;;
59734;SDS011;64362;45.620;4.920;2023-03-11T05:42:10;1.52;;;0.70;;
59734;SDS011;64362;45.620;4.920;2023-03-11T05:44:36;1.83;;;0.75;;
59734;SDS011;64362;45.620;4.920;2023-03-11T05:47:01;1.83;;;0.90;;
59734;SDS011;64362;45.620;4.920;2023-03-11T05:49:28;1.85;;;0.70;;
59734;SDS011;64362;45.620;4.920;2023-03-11T05:51:54;1.42;;;0.60;;
59734;SDS011;64362;45.620;4.920;2023-03-11T05:54:19;1.50;;;0.70;;
59734;SDS011;64362;45.620;4.920;2023-03-11T05:56:48;1.58;;;0.70;;
59734;SDS011;64362;45.620;4.920;2023-03-11T05:59:15;1.95;;;0.80;;
59734;SDS011;64362;45.620;4.920;2023-03-11T06:01:42;1.63;;;0.88;;
59734;SDS011;64362;45.620;4.920;2023-03-11T06:04:08;1.98;;;0.80;;
59734;SDS011;64362;45.620;4.920;2023-03-11T06:06:34;1.58;;;0.88;;
59734;SDS011;64362;45.620;4.920;2023-03-11T06:09:00;1.77;;;0.82;;
59734;SDS011;64362;45.620;4.920;2023-03-11T06:11:27;1.40;;;0.73;;
59734;SDS011;64362;45.620;4.920;2023-03-11T06:13:53;1.42;;;0.80;;
59734;SDS011;64362;45.620;4.920;2023-03-11T06:16:22;2.13;;;0.98;;
59734;SDS011;64362;45.620;4.920;2023-03-11T06:18:48;2.13;;;0.90;;
59734;SDS011;64362;45.620;4.920;2023-03-11T06:21:19;1.92;;;0.75;;
59734;SDS011;64362;45.620;4.920;2023-03-11T06:23:45;2.13;;;1.05;;
59734;SDS011;64362;45.620;4.920;2023-03-11T06:26:13;2.22;;;0.85;;
59734;SDS011;64362;45.620;4.920;2023-03-11T06:28:42;2.90;;;1.00;;
59734;SDS011;64362;45.620;4.920;2023-03-11T06:31:08;2.13;;;0.90;;
59734;SDS011;64362;45.620;4.920;2023-03-11T06:33:35;2.03;;;0.90;;
59734;SDS011;64362;45.620;4.920;2023-03-11T06:36:02;1.45;;;0.95;;
59734;SDS011;64362;45.620;4.920;2023-03-11T06:38:28;1.75;;;0.70;;
59734;SDS011;64362;45.620;4.920;2023-03-11T06:40:57;1.58;;;0.73;;
59734;SDS011;64362;45.620;4.920;2023-03-11T06:43:24;1.17;;;0.60;;
59734;SDS011;64362;45.620;4.920;2023-03-11T06:45:50;1.60;;;0.80;;
59734;SDS011;64362;45.620;4.920;2023-03-11T06:48:16;1.88;;;0.82;;
59734;SDS011;64362;45.620;4.920;2023-03-11T06:50:41;1.63;;;0.80;;
59734;SDS011;64362;45.620;4.920;2023-03-11T06:53:07;2.00;;;0.90;;
59734;SDS011;64362;45.620;4.920;2023-03-11T06:55:34;2.00;;;0.88;;
59734;SDS011;64362;45.620;4.920;2023-03-11T06:58:00;1.55;;;0.60;;
59734;SDS011;64362;45.620;4.920;2023-03-11T07:00:26;1.85;;;0.90;;
59734;SDS011;64362;45.620;4.920;2023-03-11T07:02:56;2.38;;;0.90;;
59734;SDS011;64362;45.620;4.920;2023-03-11T07:05:22;1.98;;;0.80;;
59734;SDS011;64362;45.620;4.920;2023-03-11T07:07:53;2.75;;;1.10;;
59734;SDS011;64362;45.620;4.920;2023-03-11T07:10:20;1.95;;;1.00;;
59734;SDS011;64362;45.620;4.920;2023-03-11T07:12:45;1.30;;;0.98;;
59734;SDS011;64362;45.620;4.920;2023-03-11T07:15:11;2.03;;;1.02;;
59734;SDS011;64362;45.620;4.920;2023-03-11T07:17:38;2.78;;;1.20;;
59734;SDS011;64362;45.620;4.920;2023-03-11T07:20:04;1.60;;;0.98;;
59734;SDS011;64362;45.620;4.920;2023-03-11T07:22:30;1.30;;;0.82;;
59734;SDS011;64362;45.620;4.920;2023-03-11T07:24:55;1.83;;;0.98;;
59734;SDS011;64362;45.620;4.920;2023-03-11T07:27:21;2.70;;;1.30;;
59734;SDS011;64362;45.620;4.920;2023-03-11T07:29:46;2.22;;;1.05;;
59734;SDS011;64362;45.620;4.920;2023-03-11T07:32:12;1.20;;;0.90;;
59734;SDS011;64362;45.620;4.920;2023-03-11T07:34:37;2.10;;;1.00;;
59734;SDS011;64362;45.620;4.920;2023-03-11T07:37:03;2.70;;;1.00;;
59734;SDS011;64362;45.620;4.920;2023-03-11T07:39:28;1.83;;;1.17;;
59734;SDS011;64362;45.620;4.920;2023-03-11T07:41:54;1.60;;;0.93;;
59734;SDS011;64362;45.620;4.920;2023-03-11T07:44:19;3.17;;;0.82;;
59734;SDS011;64362;45.620;4.920;2023-03-11T07:46:45;1.65;;;0.98;;
59734;SDS011;64362;45.620;4.920;2023-03-11T07:49:10;2.40;;;1.10;;
59734;SDS011;64362;45.620;4.920;2023-03-11T07:51:36;1.70;;;1.00;;
59734;SDS011;64362;45.620;4.920;2023-03-11T07:54:03;1.63;;;1.02;;
59734;SDS011;64362;45.620;4.920;2023-03-11T07:56:30;2.50;;;1.27;;
59734;SDS011;64362;45.620;4.920;2023-03-11T07:59:00;1.67;;;0.73;;
59734;SDS011;64362;45.620;4.920;2023-03-11T08:01:27;2.55;;;1.20;;
59734;SDS011;64362;45.620;4.920;2023-03-11T08:04:00;2.15;;;1.13;;
59734;SDS011;64362;45.620;4.920;2023-03-11T08:06:28;1.77;;;1.00;;
59734;SDS011;64362;45.620;4.920;2023-03-11T08:08:56;1.42;;;1.00;;
59734;SDS011;64362;45.620;4.920;2023-03-11T08:11:22;1.73;;;0.90;;
59734;SDS011;64362;45.620;4.920;2023-03-11T08:13:47;2.13;;;1.20;;
59734;SDS011;64362;45.620;4.920;2023-03-11T08:16:15;1.80;;;1.00;;
59734;SDS011;64362;45.620;4.920;2023-03-11T08:18:42;1.27;;;0.90;;
59734;SDS011;64362;45.620;4.920;2023-03-11T08:21:10;1.90;;;1.10;;
59734;SDS011;64362;45.620;4.920;2023-03-11T08:23:36;1.98;;;1.10;;
59734;SDS011;64362;45.620;4.920;2023-03-11T08:26:03;1.88;;;1.08;;
59734;SDS011;64362;45.620;4.920;2023-03-11T08:28:32;1.48;;;0.95;;
59734;SDS011;64362;45.620;4.920;2023-03-11T08:30:58;2.13;;;1.00;;
59734;SDS011;64362;45.620;4.920;2023-03-11T08:33:24;1.95;;;1.00;;
59734;SDS011;64362;45.620;4.920;2023-03-11T08:35:49;1.60;;;0.90;;
59734;SDS011;64362;45.620;4.920;2023-03-11T08:38:15;1.23;;;0.85;;
59734;SDS011;64362;45.620;4.920;2023-03-11T08:40:40;2.28;;;1.40;;
59734;SDS011;64362;45.620;4.920;2023-03-11T08:43:06;2.33;;;1.10;;
59734;SDS011;64362;45.620;4.920;2023-03-11T08:45:32;4.55;;;1.05;;
59734;SDS011;64362;45.620;4.920;2023-03-11T08:47:57;1.92;;;1.20;;
59734;SDS011;64362;45.620;4.920;2023-03-11T08:50:23;1.63;;;0.90;;
59734;SDS011;64362;45.620;4.920;2023-03-11T08:52:48;1.58;;;1.00;;
59734;SDS011;64362;45.620;4.920;2023-03-11T08:55:15;1.83;;;1.00;;
59734;SDS011;64362;45.620;4.920;2023-03-11T08:57:42;1.92;;;1.02;;
59734;SDS011;64362;45.620;4.920;2023-03-11T09:00:08;1.63;;;0.88;;
59734;SDS011;64362;45.620;4.920;2023-03-11T09:02:36;1.83;;;1.00;;
59734;SDS011;64362;45.620;4.920;2023-03-11T09:05:01;1.92;;;0.95;;
59734;SDS011;64362;45.620;4.920;2023-03-11T09:07:27;1.40;;;0.85;;
59734;SDS011;64362;45.620;4.920;2023-03-11T09:09:52;2.40;;;1.27;;
59734;SDS011;64362;45.620;4.920;2023-03-11T09:12:19;2.33;;;1.45;;
59734;SDS011;64362;45.620;4.920;2023-03-11T09:14:44;2.33;;;1.27;;
59734;SDS011;64362;45.620;4.920;2023-03-11T09:17:10;1.60;;;1.08;;
59734;SDS011;64362;45.620;4.920;2023-03-11T09:19:36;2.10;;;1.20;;
59734;SDS011;64362;45.620;4.920;2023-03-11T09:22:02;1.77;;;1.00;;
59734;SDS011;64362;45.620;4.920;2023-03-11T09:24:28;1.85;;;1.00;;
59734;SDS011;64362;45.620;4.920;2023-03-11T09:26:54;1.83;;;0.93;;
59734;SDS011;64362;45.620;4.920;2023-03-11T09:29:19;1.98;;;1.27;;
59734;SDS011;64362;45.620;4.920;2023-03-11T09:31:45;1.58;;;1.15;;
59734;SDS011;64362;45.620;4.920;2023-03-11T09:34:11;2.13;;;0.93;;
59734;SDS011;64362;45.620;4.920;2023-03-11T09:36:39;2.08;;;1.10;;
59734;SDS011;64362;45.620;4.920;2023-03-11T09:39:05;1.30;;;1.00;;
59734;SDS011;64362;45.620;4.920;2023-03-11T09:44:11;2.80;;;1.35;;
59734;SDS011;64362;45.620;4.920;2023-03-11T09:52:43;2.17;;;1.20;;
59734;SDS011;64362;45.620;4.920;2023-03-11T10:01:02;1.85;;;0.90;;
59734;SDS011;64362;45.620;4.920;2023-03-11T10:03:45;1.60;;;1.00;;
59734;SDS011;64362;45.620;4.920;2023-03-11T10:06:24;1.33;;;0.90;;
59734;SDS011;64362;45.620;4.920;2023-03-11T10:17:55;1.20;;;0.88;;
59734;SDS011;64362;45.620;4.920;2023-03-11T10:23:26;1.90;;;1.00;;
59734;SDS011;64362;45.620;4.920;2023-03-11T10:26:11;1.77;;;0.90;;
59734;SDS011;64362;45.620;4.920;2023-03-11T10:28:48;1.20;;;0.80;;
59734;SDS011;64362;45.620;4.920;2023-03-11T10:31:26;1.20;;;0.85;;
59734;SDS011;64362;45.620;4.920;2023-03-11T10:39:22;1.30;;;0.90;;
59734;SDS011;64362;45.620;4.920;2023-03-11T10:41:49;1.25;;;0.90;;
59734;SDS011;64362;45.620;4.920;2023-03-11T10:47:02;1.55;;;1.10;;
59734;SDS011;64362;45.620;4.920;2023-03-11T10:49:28;1.38;;;0.70;;
59734;SDS011;64362;45.620;4.920;2023-03-11T10:51:54;1.55;;;1.05;;
59734;SDS011;64362;45.620;4.920;2023-03-11T10:54:35;2.10;;;1.00;;
59734;SDS011;64362;45.620;4.920;2023-03-11T10:59:48;1.30;;;0.90;;
59734;SDS011;64362;45.620;4.920;2023-03-11T11:04:44;1.30;;;0.90;;
59734;SDS011;64362;45.620;4.920;2023-03-11T11:10:11;1.23;;;0.90;;
59734;SDS011;64362;45.620;4.920;2023-03-11T11:15:30;1.10;;;1.00;;
59734;SDS011;64362;45.620;4.920;2023-03-11T11:18:00;1.48;;;1.00;;
59734;SDS011;64362;45.620;4.920;2023-03-11T11:20:27;0.95;;;0.80;;
59734;SDS011;64362;45.620;4.920;2023-03-11T11:22:54;2.53;;;0.93;;
59734;SDS011;64362;45.620;4.920;2023-03-11T11:30:27;2.35;;;1.00;;
59734;SDS011;64362;45.620;4.920;2023-03-11T11:32:52;1.17;;;0.93;;
59734;SDS011;64362;45.620;4.920;2023-03-11T11:35:20;1.38;;;1.13;;
59734;SDS011;64362;45.620;4.920;2023-03-11T11:37:53;0.75;;;0.70;;
59734;SDS011;64362;45.620;4.920;2023-03-11T11:42:53;1.27;;;0.80;;
59734;SDS011;64362;45.620;4.920;2023-03-11T11:48:00;1.10;;;1.00;;
59734;SDS011;64362;45.620;4.920;2023-03-11T11:50:36;1.20;;;0.80;;
59734;SDS011;64362;45.620;4.920;2023-03-11T11:55:50;1.33;;;0.90;;
59734;SDS011;64362;45.620;4.920;2023-03-11T11:58:19;1.13;;;0.80;;
59734;SDS011;64362;45.620;4.920;2023-03-11T12:09:27;1.55;;;1.00;;
59734;SDS011;64362;45.620;4.920;2023-03-11T12:12:02;0.90;;;0.70;;
59734;SDS011;64362;45.620;4.920;2023-03-11T12:14:42;1.05;;;0.70;;
59734;SDS011;64362;45.620;4.920;2023-03-11T12:17:13;1.30;;;0.80;;
59734;SDS011;64362;45.620;4.920;2023-03-11T12:30:37;0.93;;;0.80;;
59734;SDS011;64362;45.620;4.920;2023-03-11T12:33:16;1.08;;;0.80;;
59734;SDS011;64362;45.620;4.920;2023-03-11T12:35:52;0.98;;;0.80;;
59734;SDS011;64362;45.620;4.920;2023-03-11T12:38:23;1.33;;;0.70;;
59734;SDS011;64362;45.620;4.920;2023-03-11T12:46:00;1.45;;;0.90;;
59734;SDS011;64362;45.620;4.920;2023-03-11T12:48:45;1.55;;;0.80;;
59734;SDS011;64362;45.620;4.920;2023-03-11T12:54:18;1.23;;;0.73;;
59734;SDS011;64362;45.620;4.920;2023-03-11T12:56:57;1.48;;;0.90;;
59734;SDS011;64362;45.620;4.920;2023-03-11T13:08:19;1.20;;;0.60;;
59734;SDS011;64362;45.620;4.920;2023-03-11T13:10:47;1.85;;;0.90;;
59734;SDS011;64362;45.620;4.920;2023-03-11T13:13:30;1.23;;;0.75;;
59734;SDS011;64362;45.620;4.920;2023-03-11T13:18:37;1.30;;;1.00;;
59734;SDS011;64362;45.620;4.920;2023-03-11T13:21:02;0.98;;;0.80;;
59734;SDS011;64362;45.620;4.920;2023-03-11T13:26:06;1.30;;;0.80;;
59734;SDS011;64362;45.620;4.920;2023-03-11T13:28:44;1.20;;;1.08;;
59734;SDS011;64362;45.620;4.920;2023-03-11T13:34:10;1.90;;;1.08;;
59734;SDS011;64362;45.620;4.920;2023-03-11T13:36:55;1.73;;;1.00;;
59734;SDS011;64362;45.620;4.920;2023-03-11T13:41:58;1.05;;;0.80;;
59734;SDS011;64362;45.620;4.920;2023-03-11T13:46:56;1.17;;;0.90;;
59734;SDS011;64362;45.620;4.920;2023-03-11T13:49:39;0.73;;;0.70;;
59734;SDS011;64362;45.620;4.920;2023-03-11T13:52:08;1.42;;;0.80;;
59734;SDS011;64362;45.620;4.920;2023-03-11T13:54:41;1.05;;;0.70;;
59734;SDS011;64362;45.620;4.920;2023-03-11T13:57:14;0.93;;;0.80;;
59734;SDS011;64362;45.620;4.920;2023-03-11T13:59:50;1.15;;;0.73;;
59734;SDS011;64362;45.620;4.920;2023-03-11T14:02:17;0.73;;;0.60;;
59734;SDS011;64362;45.620;4.920;2023-03-11T14:04:48;0.90;;;0.80;;
59734;SDS011;64362;45.620;4.920;2023-03-11T14:07:29;1.10;;;0.80;;
59734;SDS011;64362;45.620;4.920;2023-03-11T14:12:35;1.42;;;0.90;;
59734;SDS011;64362;45.620;4.920;2023-03-11T14:15:01;1.10;;;0.80;;
59734;SDS011;64362;45.620;4.920;2023-03-11T14:17:28;1.20;;;0.77;;
59734;SDS011;64362;45.620;4.920;2023-03-11T14:20:14;1.25;;;0.80;;
59734;SDS011;64362;45.620;4.920;2023-03-11T14:22:42;1.02;;;0.75;;
59734;SDS011;64362;45.620;4.920;2023-03-11T14:25:15;1.23;;;1.00;;
59734;SDS011;64362;45.620;4.920;2023-03-11T14:28:17;1.48;;;0.60;;
59734;SDS011;64362;45.620;4.920;2023-03-11T14:30:42;1.27;;;0.90;;
59734;SDS011;64362;45.620;4.920;2023-03-11T14:33:20;1.23;;;0.95;;
59734;SDS011;64362;45.620;4.920;2023-03-11T14:35:50;1.27;;;0.88;;
59734;SDS011;64362;45.620;4.920;2023-03-11T14:38:21;1.48;;;0.93;;
59734;SDS011;64362;45.620;4.920;2023-03-11T14:40:55;1.35;;;0.80;;
59734;SDS011;64362;45.620;4.920;2023-03-11T14:43:21;1.30;;;0.80;;
59734;SDS011;64362;45.620;4.920;2023-03-11T14:45:47;1.10;;;1.00;;
59734;SDS011;64362;45.620;4.920;2023-03-11T14:50:58;1.17;;;0.70;;
59734;SDS011;64362;45.620;4.920;2023-03-11T14:55:55;1.27;;;1.02;;
59734;SDS011;64362;45.620;4.920;2023-03-11T15:03:59;1.15;;;0.82;;
59734;SDS011;64362;45.620;4.920;2023-03-11T15:06:30;1.00;;;0.80;;
59734;SDS011;64362;45.620;4.920;2023-03-11T15:11:26;1.55;;;1.02;;
59734;SDS011;64362;45.620;4.920;2023-03-11T15:13:53;1.83;;;1.00;;
59734;SDS011;64362;45.620;4.920;2023-03-11T15:16:30;2.25;;;1.27;;
59734;SDS011;64362;45.620;4.920;2023-03-11T15:19:01;1.38;;;1.00;;
59734;SDS011;64362;45.620;4.920;2023-03-11T15:21:48;1.55;;;1.00;;
59734;SDS011;64362;45.620;4.920;2023-03-11T15:24:21;2.00;;;1.27;;
59734;SDS011;64362;45.620;4.920;2023-03-11T15:26:59;2.10;;;1.42;;
59734;SDS011;64362;45.620;4.920;2023-03-11T15:29:27;1.90;;;1.33;;
59734;SDS011;64362;45.620;4.920;2023-03-11T15:31:54;1.60;;;1.10;;
59734;SDS011;64362;45.620;4.920;2023-03-11T15:34:31;1.90;;;1.30;;
59734;SDS011;64362;45.620;4.920;2023-03-11T15:39:56;1.95;;;1.10;;
59734;SDS011;64362;45.620;4.920;2023-03-11T15:42:23;1.52;;;0.95;;
59734;SDS011;64362;45.620;4.920;2023-03-11T15:47:17;2.17;;;1.00;;
59734;SDS011;64362;45.620;4.920;2023-03-11T15:49:47;1.98;;;1.05;;
59734;SDS011;64362;45.620;4.920;2023-03-11T15:52:12;1.90;;;1.40;;
59734;SDS011;64362;45.620;4.920;2023-03-11T15:54:38;1.65;;;1.10;;
59734;SDS011;64362;45.620;4.920;2023-03-11T15:57:05;1.58;;;1.10;;
59734;SDS011;64362;45.620;4.920;2023-03-11T15:59:32;2.17;;;1.38;;
59734;SDS011;64362;45.620;4.920;2023-03-11T16:01:58;1.67;;;1.20;;
59734;SDS011;64362;45.620;4.920;2023-03-11T16:04:24;1.77;;;1.27;;
59734;SDS011;64362;45.620;4.920;2023-03-11T16:06:50;1.35;;;1.08;;
59734;SDS011;64362;45.620;4.920;2023-03-11T16:09:15;2.28;;;1.23;;
59734;SDS011;64362;45.620;4.920;2023-03-11T16:11:41;1.83;;;1.30;;
59734;SDS011;64362;45.620;4.920;2023-03-11T16:14:18;1.55;;;1.08;;
59734;SDS011;64362;45.620;4.920;2023-03-11T16:16:44;1.80;;;1.10;;
59734;SDS011;64362;45.620;4.920;2023-03-11T16:19:11;2.17;;;1.30;;
59734;SDS011;64362;45.620;4.920;2023-03-11T16:21:40;2.15;;;1.20;;
59734;SDS011;64362;45.620;4.920;2023-03-11T16:24:11;2.20;;;1.45;;
59734;SDS011;64362;45.620;4.920;2023-03-11T16:26:41;2.08;;;1.33;;
59734;SDS011;64362;45.620;4.920;2023-03-11T16:29:07;2.13;;;1.20;;
59734;SDS011;64362;45.620;4.920;2023-03-11T16:31:32;2.25;;;1.30;;
59734;SDS011;64362;45.620;4.920;2023-03-11T16:33:59;1.90;;;1.30;;
59734;SDS011;64362;45.620;4.920;2023-03-11T16:36:24;2.17;;;1.58;;
59734;SDS011;64362;45.620;4.920;2023-03-11T16:38:50;2.03;;;1.30;;
59734;SDS011;64362;45.620;4.920;2023-03-11T16:41:16;3.42;;;1.52;;
59734;SDS011;64362;45.620;4.920;2023-03-11T16:43:41;3.15;;;1.80;;
59734;SDS011;64362;45.620;4.920;2023-03-11T16:46:07;1.88;;;1.40;;
59734;SDS011;64362;45.620;4.920;2023-03-11T16:48:33;2.00;;;1.67;;
59734;SDS011;64362;45.620;4.920;2023-03-11T16:50:58;1.98;;;1.40;;
59734;SDS011;64362;45.620;4.920;2023-03-11T16:53:24;2.67;;;1.73;;
59734;SDS011;64362;45.620;4.920;2023-03-11T16:55:50;2.28;;;1.63;;
59734;SDS011;64362;45.620;4.920;2023-03-11T16:58:16;2.40;;;1.80;;
59734;SDS011;64362;45.620;4.920;2023-03-11T17:00:42;2.17;;;1.73;;
59734;SDS011;64362;45.620;4.920;2023-03-11T17:03:10;2.40;;;1.98;;
59734;SDS011;64362;45.620;4.920;2023-03-11T17:05:36;3.35;;;2.15;;
59734;SDS011;64362;45.620;4.920;2023-03-11T17:08:01;2.80;;;2.00;;
59734;SDS011;64362;45.620;4.920;2023-03-11T17:10:41;2.83;;;1.67;;